Phoenix, AZ (85025)

11:04 PM MST on January 30, 2015 (GMT -0700)
APRSWXNET Phoenix AZ US | Change Station
CLOSE
Current Station
Personal Weather Station
Location: Phoenix, AZ
Elevation: 1115 ft
Nearby Weather Stations

Elev 1115 ft 33.49 °N, 112.07 °W | Updated 31 minutes ago

Overcast
Overcast
53 °F
Feels Like 53 °F
N
0
Wind Variable Wind from ESE
Gusts 0.0 mph

Today
High -- | Low -- °F
--% Chance of Precip.
Yesterday
High -- | Low -- °F
Precip. -- in
7:25 AM 5:57 PM
Waxing Gibbous, 87% visible
Pressure 29.83 in
Visibility 10.0 miles
Clouds Few 800 ft
Scattered Clouds 10000 ft
Mostly Cloudy 22000 ft
Dew Point 52 °F
Humidity 95%
Rainfall 0.64 in
Snow Depth Not available.
UV 0 out of 12
Pollen .60 out of 12
Air Quality Not available.
Flu Activity Not available.
METAR KPHX 310551Z 12003KT 10SM FEW008 SCT100 BKN220 13/12 A2985 RMK AO2 SLP102 60000 T01280117 10150 20128 53002

More Conditions Fewer Conditions

Pressure 29.83 in
Visibility 10.0 miles
Clouds Few 800 ft
Scattered Clouds 10000 ft
Mostly Cloudy 22000 ft
Dew Point 52 °F
Humidity 95%
Rainfall 0.64 in
Snow Depth Not available.
UV 0 out of 12
Pollen .60 out of 12
Air Quality Not available.
Flu Activity Not available.
METAR KPHX 310551Z 12003KT 10SM FEW008 SCT100 BKN220 13/12 A2985 RMK AO2 SLP102 60000 T01280117 10150 20128 53002

More Conditions Fewer Conditions

10-Day Weather Forecast

Almanac

Astronomy

Jan. 30, 2015 Rise Set
Actual Time
Civil Twilight
Nautical Twilight
Astronomical Twilight
Moon
Length of Visible Light
Length of Day
Tomorrow will be .
, % of the Moon is Illuminated

Today's Extremes

State Highs State Lows

Community

WunderPhotos

Upload Photos

1,792,006 photos uploaded!

WunderBlogs® & News

Nearby

Air Quality

  Air Quality AQ Index Pollutant
Not available.

Snow Depth

Station Depth Elevation

Earthquake Activity

City Distance Mag. Time & Date
Minimum magnitude displayed is 2.5.

Coastal Water Temperatures

Place Temperature

Nearby Weather Stations